sensor_id;sensor_type;location;lat;lon;timestamp;P1;durP1;ratioP1;P2;durP2;ratioP2
56343;SDS011;42245;42.058;24.700;2023-04-20T00:01:32;11.80;;;7.60;;
56343;SDS011;42245;42.058;24.700;2023-04-20T00:03:58;10.95;;;8.50;;
56343;SDS011;42245;42.058;24.700;2023-04-20T00:06:26;10.63;;;7.82;;
56343;SDS011;42245;42.058;24.700;2023-04-20T00:08:53;14.48;;;8.63;;
56343;SDS011;42245;42.058;24.700;2023-04-20T00:11:19;12.65;;;8.55;;
56343;SDS011;42245;42.058;24.700;2023-04-20T00:13:45;12.45;;;8.90;;
56343;SDS011;42245;42.058;24.700;2023-04-20T00:16:10;13.32;;;9.05;;
56343;SDS011;42245;42.058;24.700;2023-04-20T00:18:35;13.20;;;9.88;;
56343;SDS011;42245;42.058;24.700;2023-04-20T00:21:01;13.48;;;9.27;;
56343;SDS011;42245;42.058;24.700;2023-04-20T00:23:27;12.52;;;9.95;;
56343;SDS011;42245;42.058;24.700;2023-04-20T00:25:52;19.63;;;10.30;;
56343;SDS011;42245;42.058;24.700;2023-04-20T00:28:18;17.80;;;10.50;;
56343;SDS011;42245;42.058;24.700;2023-04-20T00:30:44;13.75;;;10.60;;
56343;SDS011;42245;42.058;24.700;2023-04-20T00:33:09;17.42;;;10.70;;
56343;SDS011;42245;42.058;24.700;2023-04-20T00:35:35;14.60;;;10.80;;
56343;SDS011;42245;42.058;24.700;2023-04-20T00:38:00;18.08;;;10.57;;
56343;SDS011;42245;42.058;24.700;2023-04-20T00:40:26;15.82;;;10.73;;
56343;SDS011;42245;42.058;24.700;2023-04-20T00:42:51;12.82;;;9.85;;
56343;SDS011;42245;42.058;24.700;2023-04-20T00:45:16;15.02;;;10.75;;
56343;SDS011;42245;42.058;24.700;2023-04-20T00:47:42;14.05;;;10.52;;
56343;SDS011;42245;42.058;24.700;2023-04-20T00:50:07;15.43;;;11.25;;
56343;SDS011;42245;42.058;24.700;2023-04-20T00:52:33;14.20;;;10.70;;
56343;SDS011;42245;42.058;24.700;2023-04-20T00:54:59;16.98;;;10.68;;
56343;SDS011;42245;42.058;24.700;2023-04-20T00:57:25;16.08;;;11.13;;
56343;SDS011;42245;42.058;24.700;2023-04-20T00:59:50;15.88;;;10.93;;
56343;SDS011;42245;42.058;24.700;2023-04-20T01:02:16;14.90;;;11.25;;
56343;SDS011;42245;42.058;24.700;2023-04-20T01:04:43;17.45;;;11.75;;
56343;SDS011;42245;42.058;24.700;2023-04-20T01:07:09;17.60;;;12.02;;
56343;SDS011;42245;42.058;24.700;2023-04-20T01:09:36;15.27;;;11.65;;
56343;SDS011;42245;42.058;24.700;2023-04-20T01:12:03;15.52;;;11.85;;
56343;SDS011;42245;42.058;24.700;2023-04-20T01:14:29;18.17;;;12.98;;
56343;SDS011;42245;42.058;24.700;2023-04-20T01:16:54;16.15;;;12.25;;
56343;SDS011;42245;42.058;24.700;2023-04-20T01:19:20;18.40;;;11.95;;
56343;SDS011;42245;42.058;24.700;2023-04-20T01:21:45;19.27;;;12.82;;
56343;SDS011;42245;42.058;24.700;2023-04-20T01:24:12;15.57;;;12.00;;
56343;SDS011;42245;42.058;24.700;2023-04-20T01:26:37;18.25;;;13.00;;
56343;SDS011;42245;42.058;24.700;2023-04-20T01:29:02;18.48;;;12.40;;
56343;SDS011;42245;42.058;24.700;2023-04-20T01:31:28;20.02;;;13.00;;
56343;SDS011;42245;42.058;24.700;2023-04-20T01:33:54;16.23;;;13.27;;
56343;SDS011;42245;42.058;24.700;2023-04-20T01:36:20;17.80;;;13.00;;
56343;SDS011;42245;42.058;24.700;2023-04-20T01:38:45;15.32;;;12.35;;
56343;SDS011;42245;42.058;24.700;2023-04-20T01:41:11;18.42;;;12.63;;
56343;SDS011;42245;42.058;24.700;2023-04-20T01:43:37;17.92;;;13.30;;
56343;SDS011;42245;42.058;24.700;2023-04-20T01:46:03;18.15;;;13.40;;
56343;SDS011;42245;42.058;24.700;2023-04-20T01:48:29;15.48;;;12.07;;
56343;SDS011;42245;42.058;24.700;2023-04-20T01:50:55;17.80;;;12.27;;
56343;SDS011;42245;42.058;24.700;2023-04-20T01:53:20;15.00;;;12.38;;
56343;SDS011;42245;42.058;24.700;2023-04-20T01:55:46;16.58;;;12.57;;
56343;SDS011;42245;42.058;24.700;2023-04-20T01:58:14;17.33;;;13.20;;
56343;SDS011;42245;42.058;24.700;2023-04-20T02:00:39;15.25;;;12.60;;
56343;SDS011;42245;42.058;24.700;2023-04-20T02:03:05;16.65;;;12.43;;
56343;SDS011;42245;42.058;24.700;2023-04-20T02:05:30;16.27;;;13.25;;
56343;SDS011;42245;42.058;24.700;2023-04-20T02:07:56;16.77;;;12.55;;
56343;SDS011;42245;42.058;24.700;2023-04-20T02:10:21;19.08;;;13.10;;
56343;SDS011;42245;42.058;24.700;2023-04-20T02:12:47;19.60;;;13.68;;
56343;SDS011;42245;42.058;24.700;2023-04-20T02:15:13;18.17;;;13.45;;
56343;SDS011;42245;42.058;24.700;2023-04-20T02:17:39;16.35;;;13.20;;
56343;SDS011;42245;42.058;24.700;2023-04-20T02:20:06;17.67;;;13.45;;
56343;SDS011;42245;42.058;24.700;2023-04-20T02:22:33;18.33;;;12.95;;
56343;SDS011;42245;42.058;24.700;2023-04-20T02:25:02;17.92;;;12.55;;
56343;SDS011;42245;42.058;24.700;2023-04-20T02:27:29;18.90;;;13.48;;
56343;SDS011;42245;42.058;24.700;2023-04-20T02:29:55;18.75;;;12.93;;
56343;SDS011;42245;42.058;24.700;2023-04-20T02:32:21;15.38;;;12.90;;
56343;SDS011;42245;42.058;24.700;2023-04-20T02:34:47;16.45;;;12.05;;
56343;SDS011;42245;42.058;24.700;2023-04-20T02:37:12;15.85;;;12.20;;
56343;SDS011;42245;42.058;24.700;2023-04-20T02:39:38;15.25;;;11.30;;
56343;SDS011;42245;42.058;24.700;2023-04-20T02:42:03;15.40;;;12.18;;
56343;SDS011;42245;42.058;24.700;2023-04-20T02:44:29;16.38;;;11.10;;
56343;SDS011;42245;42.058;24.700;2023-04-20T02:46:55;14.52;;;12.65;;
56343;SDS011;42245;42.058;24.700;2023-04-20T02:49:20;15.65;;;12.43;;
56343;SDS011;42245;42.058;24.700;2023-04-20T02:51:46;20.08;;;13.40;;
56343;SDS011;42245;42.058;24.700;2023-04-20T02:54:11;17.83;;;13.00;;
56343;SDS011;42245;42.058;24.700;2023-04-20T02:56:37;16.20;;;11.63;;
56343;SDS011;42245;42.058;24.700;2023-04-20T02:59:02;15.65;;;12.23;;
56343;SDS011;42245;42.058;24.700;2023-04-20T03:01:28;15.07;;;11.65;;
56343;SDS011;42245;42.058;24.700;2023-04-20T03:03:54;20.33;;;13.45;;
56343;SDS011;42245;42.058;24.700;2023-04-20T03:06:19;18.38;;;12.38;;
56343;SDS011;42245;42.058;24.700;2023-04-20T03:08:45;13.98;;;12.15;;
56343;SDS011;42245;42.058;24.700;2023-04-20T03:11:11;15.50;;;12.10;;
56343;SDS011;42245;42.058;24.700;2023-04-20T03:13:36;16.80;;;11.93;;
56343;SDS011;42245;42.058;24.700;2023-04-20T03:16:02;18.08;;;12.52;;
56343;SDS011;42245;42.058;24.700;2023-04-20T03:18:29;18.45;;;13.30;;
56343;SDS011;42245;42.058;24.700;2023-04-20T03:20:54;20.23;;;13.10;;
56343;SDS011;42245;42.058;24.700;2023-04-20T03:23:20;19.08;;;12.63;;
56343;SDS011;42245;42.058;24.700;2023-04-20T03:25:46;16.83;;;13.45;;
56343;SDS011;42245;42.058;24.700;2023-04-20T03:28:11;18.23;;;12.73;;
56343;SDS011;42245;42.058;24.700;2023-04-20T03:30:37;19.15;;;12.75;;
56343;SDS011;42245;42.058;24.700;2023-04-20T03:33:03;17.10;;;12.73;;
56343;SDS011;42245;42.058;24.700;2023-04-20T03:35:28;17.75;;;13.70;;
56343;SDS011;42245;42.058;24.700;2023-04-20T03:37:53;17.35;;;13.68;;
56343;SDS011;42245;42.058;24.700;2023-04-20T03:40:19;19.48;;;13.77;;
56343;SDS011;42245;42.058;24.700;2023-04-20T03:42:45;17.65;;;13.15;;
56343;SDS011;42245;42.058;24.700;2023-04-20T03:45:11;18.00;;;13.02;;
56343;SDS011;42245;42.058;24.700;2023-04-20T03:47:37;17.38;;;12.40;;
56343;SDS011;42245;42.058;24.700;2023-04-20T03:50:03;16.58;;;13.23;;
56343;SDS011;42245;42.058;24.700;2023-04-20T03:52:28;16.90;;;13.88;;
56343;SDS011;42245;42.058;24.700;2023-04-20T03:54:54;17.02;;;12.70;;
56343;SDS011;42245;42.058;24.700;2023-04-20T03:57:19;18.60;;;12.18;;
56343;SDS011;42245;42.058;24.700;2023-04-20T03:59:46;18.80;;;14.57;;
56343;SDS011;42245;42.058;24.700;2023-04-20T04:02:11;19.33;;;14.90;;
56343;SDS011;42245;42.058;24.700;2023-04-20T04:04:37;17.55;;;15.65;;
56343;SDS011;42245;42.058;24.700;2023-04-20T04:07:03;18.00;;;13.77;;
56343;SDS011;42245;42.058;24.700;2023-04-20T04:09:28;16.17;;;11.85;;
56343;SDS011;42245;42.058;24.700;2023-04-20T04:11:54;18.17;;;14.68;;
56343;SDS011;42245;42.058;24.700;2023-04-20T04:14:19;15.52;;;13.00;;
56343;SDS011;42245;42.058;24.700;2023-04-20T04:16:45;19.88;;;12.80;;
56343;SDS011;42245;42.058;24.700;2023-04-20T04:19:10;17.70;;;13.68;;
56343;SDS011;42245;42.058;24.700;2023-04-20T04:21:36;15.15;;;11.63;;
56343;SDS011;42245;42.058;24.700;2023-04-20T04:24:01;13.10;;;11.30;;
56343;SDS011;42245;42.058;24.700;2023-04-20T04:26:27;16.65;;;11.52;;
56343;SDS011;42245;42.058;24.700;2023-04-20T04:28:53;12.40;;;10.95;;
56343;SDS011;42245;42.058;24.700;2023-04-20T04:31:19;14.82;;;11.30;;
56343;SDS011;42245;42.058;24.700;2023-04-20T04:33:45;13.68;;;11.18;;
56343;SDS011;42245;42.058;24.700;2023-04-20T04:36:11;16.02;;;11.20;;
56343;SDS011;42245;42.058;24.700;2023-04-20T04:38:39;13.93;;;10.77;;
56343;SDS011;42245;42.058;24.700;2023-04-20T04:41:04;12.35;;;9.57;;
56343;SDS011;42245;42.058;24.700;2023-04-20T04:43:30;14.32;;;10.20;;
56343;SDS011;42245;42.058;24.700;2023-04-20T04:45:56;13.32;;;9.63;;
56343;SDS011;42245;42.058;24.700;2023-04-20T04:48:22;15.05;;;9.80;;
56343;SDS011;42245;42.058;24.700;2023-04-20T04:50:48;12.57;;;9.93;;
56343;SDS011;42245;42.058;24.700;2023-04-20T04:53:13;12.52;;;9.77;;
56343;SDS011;42245;42.058;24.700;2023-04-20T04:55:38;11.30;;;9.63;;
56343;SDS011;42245;42.058;24.700;2023-04-20T04:58:04;11.15;;;9.88;;
56343;SDS011;42245;42.058;24.700;2023-04-20T05:00:29;13.75;;;8.75;;
56343;SDS011;42245;42.058;24.700;2023-04-20T05:02:55;10.63;;;8.80;;
56343;SDS011;42245;42.058;24.700;2023-04-20T05:05:21;11.50;;;8.48;;
56343;SDS011;42245;42.058;24.700;2023-04-20T05:07:47;11.70;;;9.38;;
56343;SDS011;42245;42.058;24.700;2023-04-20T05:10:12;10.88;;;8.77;;
56343;SDS011;42245;42.058;24.700;2023-04-20T05:12:38;10.38;;;9.07;;
56343;SDS011;42245;42.058;24.700;2023-04-20T05:15:04;11.90;;;8.27;;
56343;SDS011;42245;42.058;24.700;2023-04-20T05:17:30;9.60;;;8.65;;
56343;SDS011;42245;42.058;24.700;2023-04-20T05:19:56;14.52;;;9.38;;
56343;SDS011;42245;42.058;24.700;2023-04-20T05:22:21;13.68;;;10.63;;
56343;SDS011;42245;42.058;24.700;2023-04-20T05:24:47;12.13;;;9.50;;
56343;SDS011;42245;42.058;24.700;2023-04-20T05:27:12;13.57;;;10.40;;
56343;SDS011;42245;42.058;24.700;2023-04-20T05:29:37;10.32;;;8.80;;
56343;SDS011;42245;42.058;24.700;2023-04-20T05:32:03;12.90;;;8.20;;
56343;SDS011;42245;42.058;24.700;2023-04-20T05:34:29;11.35;;;8.27;;
56343;SDS011;42245;42.058;24.700;2023-04-20T05:36:54;10.02;;;7.82;;
56343;SDS011;42245;42.058;24.700;2023-04-20T05:39:21;12.80;;;7.75;;
56343;SDS011;42245;42.058;24.700;2023-04-20T05:41:47;9.60;;;7.65;;
56343;SDS011;42245;42.058;24.700;2023-04-20T05:44:12;9.65;;;7.30;;
56343;SDS011;42245;42.058;24.700;2023-04-20T05:46:38;11.75;;;8.10;;
56343;SDS011;42245;42.058;24.700;2023-04-20T05:49:03;12.05;;;7.10;;
56343;SDS011;42245;42.058;24.700;2023-04-20T05:51:28;12.32;;;7.38;;
56343;SDS011;42245;42.058;24.700;2023-04-20T05:53:58;11.32;;;7.65;;
56343;SDS011;42245;42.058;24.700;2023-04-20T05:56:26;8.73;;;6.85;;
56343;SDS011;42245;42.058;24.700;2023-04-20T05:58:52;9.18;;;6.93;;
56343;SDS011;42245;42.058;24.700;2023-04-20T06:01:18;9.30;;;6.88;;
56343;SDS011;42245;42.058;24.700;2023-04-20T06:03:43;8.18;;;7.38;;
56343;SDS011;42245;42.058;24.700;2023-04-20T06:06:09;8.23;;;7.28;;
56343;SDS011;42245;42.058;24.700;2023-04-20T06:08:35;9.43;;;6.82;;
56343;SDS011;42245;42.058;24.700;2023-04-20T06:11:00;8.90;;;6.85;;
56343;SDS011;42245;42.058;24.700;2023-04-20T06:13:26;10.75;;;6.90;;
56343;SDS011;42245;42.058;24.700;2023-04-20T06:15:51;10.02;;;6.80;;
56343;SDS011;42245;42.058;24.700;2023-04-20T06:18:17;10.50;;;6.90;;
56343;SDS011;42245;42.058;24.700;2023-04-20T06:20:43;9.90;;;7.43;;
56343;SDS011;42245;42.058;24.700;2023-04-20T06:23:09;11.60;;;7.40;;
56343;SDS011;42245;42.058;24.700;2023-04-20T06:25:36;10.65;;;7.43;;
56343;SDS011;42245;42.058;24.700;2023-04-20T06:28:04;10.80;;;7.05;;
56343;SDS011;42245;42.058;24.700;2023-04-20T06:30:31;9.98;;;7.20;;
56343;SDS011;42245;42.058;24.700;2023-04-20T06:32:58;9.38;;;7.32;;
56343;SDS011;42245;42.058;24.700;2023-04-20T06:35:24;10.30;;;7.40;;
56343;SDS011;42245;42.058;24.700;2023-04-20T06:37:50;10.48;;;8.40;;
56343;SDS011;42245;42.058;24.700;2023-04-20T06:40:16;10.75;;;7.43;;
56343;SDS011;42245;42.058;24.700;2023-04-20T06:42:41;11.80;;;7.25;;
56343;SDS011;42245;42.058;24.700;2023-04-20T06:45:07;10.65;;;7.70;;
56343;SDS011;42245;42.058;24.700;2023-04-20T06:47:33;12.23;;;8.10;;
56343;SDS011;42245;42.058;24.700;2023-04-20T06:49:59;9.77;;;6.97;;
56343;SDS011;42245;42.058;24.700;2023-04-20T06:52:25;11.07;;;7.47;;
56343;SDS011;42245;42.058;24.700;2023-04-20T06:54:51;9.55;;;7.43;;
56343;SDS011;42245;42.058;24.700;2023-04-20T06:57:17;11.60;;;7.45;;
56343;SDS011;42245;42.058;24.700;2023-04-20T06:59:42;8.98;;;7.55;;
56343;SDS011;42245;42.058;24.700;2023-04-20T07:02:08;12.40;;;8.18;;
56343;SDS011;42245;42.058;24.700;2023-04-20T07:04:33;9.40;;;7.50;;
56343;SDS011;42245;42.058;24.700;2023-04-20T07:06:58;9.30;;;7.72;;
56343;SDS011;42245;42.058;24.700;2023-04-20T07:09:24;12.38;;;8.13;;
56343;SDS011;42245;42.058;24.700;2023-04-20T07:11:51;14.27;;;7.75;;
56343;SDS011;42245;42.058;24.700;2023-04-20T07:14:16;9.20;;;7.65;;
56343;SDS011;42245;42.058;24.700;2023-04-20T07:16:41;9.18;;;7.40;;
56343;SDS011;42245;42.058;24.700;2023-04-20T07:19:07;10.93;;;7.68;;
56343;SDS011;42245;42.058;24.700;2023-04-20T07:21:32;9.10;;;7.57;;
56343;SDS011;42245;42.058;24.700;2023-04-20T07:23:58;9.27;;;7.55;;
56343;SDS011;42245;42.058;24.700;2023-04-20T07:26:26;12.55;;;8.13;;
56343;SDS011;42245;42.058;24.700;2023-04-20T07:28:52;9.43;;;7.47;;
56343;SDS011;42245;42.058;24.700;2023-04-20T07:31:17;10.35;;;7.35;;
56343;SDS011;42245;42.058;24.700;2023-04-20T07:33:43;8.73;;;7.30;;
56343;SDS011;42245;42.058;24.700;2023-04-20T07:36:09;11.23;;;7.45;;
56343;SDS011;42245;42.058;24.700;2023-04-20T07:38:34;10.38;;;7.63;;
56343;SDS011;42245;42.058;24.700;2023-04-20T07:41:00;8.63;;;7.65;;
56343;SDS011;42245;42.058;24.700;2023-04-20T07:43:26;14.43;;;8.23;;
56343;SDS011;42245;42.058;24.700;2023-04-20T07:45:52;12.30;;;7.40;;
56343;SDS011;42245;42.058;24.700;2023-04-20T07:48:17;8.48;;;7.57;;
56343;SDS011;42245;42.058;24.700;2023-04-20T07:50:44;9.45;;;7.55;;
56343;SDS011;42245;42.058;24.700;2023-04-20T07:53:10;9.45;;;7.90;;
56343;SDS011;42245;42.058;24.700;2023-04-20T07:55:35;8.60;;;7.38;;
56343;SDS011;42245;42.058;24.700;2023-04-20T07:58:01;11.68;;;8.30;;
56343;SDS011;42245;42.058;24.700;2023-04-20T08:00:27;10.70;;;7.93;;
56343;SDS011;42245;42.058;24.700;2023-04-20T08:02:52;11.02;;;8.18;;
56343;SDS011;42245;42.058;24.700;2023-04-20T08:05:17;11.75;;;8.48;;
56343;SDS011;42245;42.058;24.700;2023-04-20T08:07:43;10.63;;;8.30;;
56343;SDS011;42245;42.058;24.700;2023-04-20T08:10:08;10.35;;;8.68;;
56343;SDS011;42245;42.058;24.700;2023-04-20T08:12:34;12.75;;;8.88;;
56343;SDS011;42245;42.058;24.700;2023-04-20T08:15:00;12.27;;;9.10;;
56343;SDS011;42245;42.058;24.700;2023-04-20T08:17:28;9.82;;;8.52;;
56343;SDS011;42245;42.058;24.700;2023-04-20T08:19:54;11.15;;;8.85;;
56343;SDS011;42245;42.058;24.700;2023-04-20T08:22:19;14.25;;;8.63;;
56343;SDS011;42245;42.058;24.700;2023-04-20T08:24:45;10.40;;;8.65;;
56343;SDS011;42245;42.058;24.700;2023-04-20T08:27:11;9.05;;;7.88;;
56343;SDS011;42245;42.058;24.700;2023-04-20T08:29:37;12.40;;;8.02;;
56343;SDS011;42245;42.058;24.700;2023-04-20T08:32:03;9.93;;;8.10;;
56343;SDS011;42245;42.058;24.700;2023-04-20T08:34:29;8.80;;;7.65;;
56343;SDS011;42245;42.058;24.700;2023-04-20T08:36:54;12.93;;;8.95;;
56343;SDS011;42245;42.058;24.700;2023-04-20T08:39:20;11.77;;;8.50;;
56343;SDS011;42245;42.058;24.700;2023-04-20T08:41:48;11.27;;;8.65;;
56343;SDS011;42245;42.058;24.700;2023-04-20T08:44:17;9.73;;;8.73;;
56343;SDS011;42245;42.058;24.700;2023-04-20T08:46:43;9.52;;;8.52;;
56343;SDS011;42245;42.058;24.700;2023-04-20T08:49:11;9.85;;;8.85;;
56343;SDS011;42245;42.058;24.700;2023-04-20T08:51:41;13.25;;;9.68;;
56343;SDS011;42245;42.058;24.700;2023-04-20T08:54:07;12.48;;;9.18;;
56343;SDS011;42245;42.058;24.700;2023-04-20T08:56:33;10.70;;;8.55;;
56343;SDS011;42245;42.058;24.700;2023-04-20T08:59:00;11.35;;;8.93;;
56343;SDS011;42245;42.058;24.700;2023-04-20T09:01:27;10.18;;;8.45;;
56343;SDS011;42245;42.058;24.700;2023-04-20T09:03:53;11.50;;;8.75;;
56343;SDS011;42245;42.058;24.700;2023-04-20T09:06:19;13.18;;;8.70;;
56343;SDS011;42245;42.058;24.700;2023-04-20T09:08:44;15.38;;;9.15;;
56343;SDS011;42245;42.058;24.700;2023-04-20T09:11:20;10.05;;;8.50;;
56343;SDS011;42245;42.058;24.700;2023-04-20T09:13:56;12.45;;;9.68;;
56343;SDS011;42245;42.058;24.700;2023-04-20T09:16:23;13.95;;;9.80;;
56343;SDS011;42245;42.058;24.700;2023-04-20T09:18:50;15.43;;;9.35;;
56343;SDS011;42245;42.058;24.700;2023-04-20T09:21:17;13.80;;;10.52;;
56343;SDS011;42245;42.058;24.700;2023-04-20T09:23:42;10.70;;;9.35;;
56343;SDS011;42245;42.058;24.700;2023-04-20T09:26:15;9.93;;;8.52;;
56343;SDS011;42245;42.058;24.700;2023-04-20T09:28:42;13.85;;;9.15;;
56343;SDS011;42245;42.058;24.700;2023-04-20T09:31:16;15.70;;;9.48;;
56343;SDS011;42245;42.058;24.700;2023-04-20T09:33:54;12.45;;;9.02;;
56343;SDS011;42245;42.058;24.700;2023-04-20T09:36:23;11.23;;;9.02;;
56343;SDS011;42245;42.058;24.700;2023-04-20T09:41:51;12.65;;;8.95;;
56343;SDS011;42245;42.058;24.700;2023-04-20T09:44:17;12.25;;;9.02;;
56343;SDS011;42245;42.058;24.700;2023-04-20T09:46:43;13.43;;;9.77;;
56343;SDS011;42245;42.058;24.700;2023-04-20T09:49:10;9.50;;;8.50;;
56343;SDS011;42245;42.058;24.700;2023-04-20T09:51:37;10.27;;;7.80;;
56343;SDS011;42245;42.058;24.700;2023-04-20T09:54:09;9.93;;;7.53;;
56343;SDS011;42245;42.058;24.700;2023-04-20T09:56:35;10.68;;;8.98;;
56343;SDS011;42245;42.058;24.700;2023-04-20T09:59:00;18.00;;;10.00;;
56343;SDS011;42245;42.058;24.700;2023-04-20T10:01:30;10.82;;;8.93;;
56343;SDS011;42245;42.058;24.700;2023-04-20T10:03:58;10.35;;;8.52;;
56343;SDS011;42245;42.058;24.700;2023-04-20T10:06:29;9.68;;;8.52;;
56343;SDS011;42245;42.058;24.700;2023-04-20T10:08:56;10.77;;;8.88;;
56343;SDS011;42245;42.058;24.700;2023-04-20T10:14:17;10.25;;;7.93;;
56343;SDS011;42245;42.058;24.700;2023-04-20T10:16:44;9.45;;;8.07;;
56343;SDS011;42245;42.058;24.700;2023-04-20T10:19:10;13.20;;;8.05;;
56343;SDS011;42245;42.058;24.700;2023-04-20T10:21:46;9.75;;;7.70;;
56343;SDS011;42245;42.058;24.700;2023-04-20T10:24:13;10.88;;;7.80;;
56343;SDS011;42245;42.058;24.700;2023-04-20T10:26:40;10.40;;;7.25;;
56343;SDS011;42245;42.058;24.700;2023-04-20T10:29:07;10.38;;;8.45;;
56343;SDS011;42245;42.058;24.700;2023-04-20T10:31:37;9.48;;;8.30;;
56343;SDS011;42245;42.058;24.700;2023-04-20T10:34:06;11.88;;;7.85;;
56343;SDS011;42245;42.058;24.700;2023-04-20T10:36:33;9.65;;;8.68;;
56343;SDS011;42245;42.058;24.700;2023-04-20T10:39:21;12.02;;;8.77;;
56343;SDS011;42245;42.058;24.700;2023-04-20T10:41:53;10.18;;;8.10;;
56343;SDS011;42245;42.058;24.700;2023-04-20T10:44:22;12.20;;;9.98;;
56343;SDS011;42245;42.058;24.700;2023-04-20T10:46:50;10.07;;;8.75;;
56343;SDS011;42245;42.058;24.700;2023-04-20T10:49:16;10.43;;;8.45;;
56343;SDS011;42245;42.058;24.700;2023-04-20T10:51:49;13.15;;;8.38;;
56343;SDS011;42245;42.058;24.700;2023-04-20T10:54:14;9.77;;;8.00;;
56343;SDS011;42245;42.058;24.700;2023-04-20T10:56:43;12.25;;;8.50;;
56343;SDS011;42245;42.058;24.700;2023-04-20T10:59:10;10.07;;;8.00;;
56343;SDS011;42245;42.058;24.700;2023-04-20T11:01:37;12.27;;;7.43;;
56343;SDS011;42245;42.058;24.700;2023-04-20T11:04:03;8.18;;;7.38;;
56343;SDS011;42245;42.058;24.700;2023-04-20T11:06:32;11.15;;;7.80;;
56343;SDS011;42245;42.058;24.700;2023-04-20T11:08:58;8.48;;;7.55;;
56343;SDS011;42245;42.058;24.700;2023-04-20T11:11:24;9.75;;;7.57;;
56343;SDS011;42245;42.058;24.700;2023-04-20T11:14:06;10.38;;;8.05;;
56343;SDS011;42245;42.058;24.700;2023-04-20T11:16:33;10.88;;;7.70;;
56343;SDS011;42245;42.058;24.700;2023-04-20T11:19:00;9.80;;;7.32;;
56343;SDS011;42245;42.058;24.700;2023-04-20T11:21:40;8.05;;;6.97;;
56343;SDS011;42245;42.058;24.700;2023-04-20T11:24:19;10.30;;;7.13;;
56343;SDS011;42245;42.058;24.700;2023-04-20T11:26:45;9.38;;;7.38;;
56343;SDS011;42245;42.058;24.700;2023-04-20T11:29:13;8.05;;;7.05;;
56343;SDS011;42245;42.058;24.700;2023-04-20T11:32:00;9.13;;;7.43;;
56343;SDS011;42245;42.058;24.700;2023-04-20T11:34:31;8.27;;;6.80;;
56343;SDS011;42245;42.058;24.700;2023-04-20T11:37:02;8.07;;;7.28;;
56343;SDS011;42245;42.058;24.700;2023-04-20T11:39:31;10.00;;;7.72;;
56343;SDS011;42245;42.058;24.700;2023-04-20T11:41:57;8.73;;;7.22;;
56343;SDS011;42245;42.058;24.700;2023-04-20T11:44:23;9.60;;;7.40;;
56343;SDS011;42245;42.058;24.700;2023-04-20T11:46:50;8.10;;;7.28;;
56343;SDS011;42245;42.058;24.700;2023-04-20T11:49:18;9.68;;;7.07;;
56343;SDS011;42245;42.058;24.700;2023-04-20T11:51:44;9.48;;;6.75;;
56343;SDS011;42245;42.058;24.700;2023-04-20T11:54:11;9.57;;;6.80;;
56343;SDS011;42245;42.058;24.700;2023-04-20T11:56:36;8.90;;;7.40;;
56343;SDS011;42245;42.058;24.700;2023-04-20T11:59:02;12.23;;;7.07;;
56343;SDS011;42245;42.058;24.700;2023-04-20T12:01:28;12.18;;;7.10;;
56343;SDS011;42245;42.058;24.700;2023-04-20T12:03:54;9.68;;;7.07;;
56343;SDS011;42245;42.058;24.700;2023-04-20T12:06:22;8.65;;;7.75;;
56343;SDS011;42245;42.058;24.700;2023-04-20T12:08:47;10.30;;;7.47;;
56343;SDS011;42245;42.058;24.700;2023-04-20T12:11:13;9.98;;;7.25;;
56343;SDS011;42245;42.058;24.700;2023-04-20T12:13:41;9.95;;;7.95;;
56343;SDS011;42245;42.058;24.700;2023-04-20T12:16:07;10.80;;;7.28;;
56343;SDS011;42245;42.058;24.700;2023-04-20T12:18:33;7.25;;;6.38;;
56343;SDS011;42245;42.058;24.700;2023-04-20T12:20:58;7.22;;;6.53;;
56343;SDS011;42245;42.058;24.700;2023-04-20T12:23:24;8.27;;;6.70;;
56343;SDS011;42245;42.058;24.700;2023-04-20T12:25:50;8.98;;;6.30;;
56343;SDS011;42245;42.058;24.700;2023-04-20T12:28:16;9.98;;;6.25;;
56343;SDS011;42245;42.058;24.700;2023-04-20T12:30:41;7.95;;;5.50;;
56343;SDS011;42245;42.058;24.700;2023-04-20T12:33:07;7.28;;;6.47;;
56343;SDS011;42245;42.058;24.700;2023-04-20T12:35:32;10.45;;;6.57;;
56343;SDS011;42245;42.058;24.700;2023-04-20T12:37:58;10.50;;;6.85;;
56343;SDS011;42245;42.058;24.700;2023-04-20T12:40:23;9.40;;;6.90;;
56343;SDS011;42245;42.058;24.700;2023-04-20T12:42:49;10.15;;;6.50;;
56343;SDS011;42245;42.058;24.700;2023-04-20T12:45:14;9.40;;;7.07;;
56343;SDS011;42245;42.058;24.700;2023-04-20T12:47:40;10.02;;;6.93;;
56343;SDS011;42245;42.058;24.700;2023-04-20T12:50:05;7.30;;;6.22;;
56343;SDS011;42245;42.058;24.700;2023-04-20T12:52:31;8.65;;;6.78;;
56343;SDS011;42245;42.058;24.700;2023-04-20T12:54:58;8.68;;;6.20;;
56343;SDS011;42245;42.058;24.700;2023-04-20T12:57:23;8.38;;;6.65;;
56343;SDS011;42245;42.058;24.700;2023-04-20T12:59:49;9.32;;;6.78;;
56343;SDS011;42245;42.058;24.700;2023-04-20T13:02:15;7.05;;;5.95;;
56343;SDS011;42245;42.058;24.700;2023-04-20T13:04:41;7.45;;;6.60;;
56343;SDS011;42245;42.058;24.700;2023-04-20T13:07:06;8.48;;;6.80;;
56343;SDS011;42245;42.058;24.700;2023-04-20T13:09:32;9.13;;;7.22;;
56343;SDS011;42245;42.058;24.700;2023-04-20T13:11:57;9.65;;;7.18;;
56343;SDS011;42245;42.058;24.700;2023-04-20T13:14:23;7.80;;;6.53;;
56343;SDS011;42245;42.058;24.700;2023-04-20T13:16:49;8.57;;;6.90;;
56343;SDS011;42245;42.058;24.700;2023-04-20T13:19:15;10.52;;;7.78;;
56343;SDS011;42245;42.058;24.700;2023-04-20T13:21:40;9.40;;;6.38;;
56343;SDS011;42245;42.058;24.700;2023-04-20T13:24:06;9.13;;;6.30;;
56343;SDS011;42245;42.058;24.700;2023-04-20T13:26:31;7.22;;;5.93;;
56343;SDS011;42245;42.058;24.700;2023-04-20T13:28:57;8.55;;;6.07;;
56343;SDS011;42245;42.058;24.700;2023-04-20T13:31:23;8.38;;;5.90;;
56343;SDS011;42245;42.058;24.700;2023-04-20T13:33:49;7.60;;;6.20;;
56343;SDS011;42245;42.058;24.700;2023-04-20T13:36:21;6.45;;;5.80;;
56343;SDS011;42245;42.058;24.700;2023-04-20T13:38:47;7.90;;;6.13;;
56343;SDS011;42245;42.058;24.700;2023-04-20T13:41:13;9.40;;;6.60;;
56343;SDS011;42245;42.058;24.700;2023-04-20T13:43:40;9.02;;;6.32;;
56343;SDS011;42245;42.058;24.700;2023-04-20T13:46:06;8.40;;;6.05;;
56343;SDS011;42245;42.058;24.700;2023-04-20T13:48:32;7.43;;;6.40;;
56343;SDS011;42245;42.058;24.700;2023-04-20T13:50:57;10.20;;;6.57;;
56343;SDS011;42245;42.058;24.700;2023-04-20T13:53:23;7.57;;;6.03;;
56343;SDS011;42245;42.058;24.700;2023-04-20T13:55:48;7.38;;;6.13;;
56343;SDS011;42245;42.058;24.700;2023-04-20T13:58:14;7.25;;;6.20;;
56343;SDS011;42245;42.058;24.700;2023-04-20T14:00:39;7.60;;;6.47;;
56343;SDS011;42245;42.058;24.700;2023-04-20T14:03:05;7.05;;;5.75;;
56343;SDS011;42245;42.058;24.700;2023-04-20T14:05:34;7.05;;;6.10;;
56343;SDS011;42245;42.058;24.700;2023-04-20T14:07:59;6.85;;;6.00;;
56343;SDS011;42245;42.058;24.700;2023-04-20T14:10:26;10.00;;;6.60;;
56343;SDS011;42245;42.058;24.700;2023-04-20T14:12:52;7.60;;;6.43;;
56343;SDS011;42245;42.058;24.700;2023-04-20T14:15:17;11.30;;;7.20;;
56343;SDS011;42245;42.058;24.700;2023-04-20T14:17:43;6.68;;;5.97;;
56343;SDS011;42245;42.058;24.700;2023-04-20T14:20:09;9.60;;;6.30;;
56343;SDS011;42245;42.058;24.700;2023-04-20T14:22:35;7.45;;;6.63;;